Time;durP1;ratioP1;P1;durP2;ratioP2;P2;SDS_P1;SDS_P2;PMS_P1;PMS_P2;Temp;Humidity;BMP_temperature;BMP_pressure;BME280_temperature;BME280_humidity;BME280_pressure;Samples;Min_cycle;Max_cycle;Signal;HPM_P1;HPM_P2
2023/06/06 00:02:07;;;;;;;;;;;;;;;22.66;nan;102037.53;5045157;28;19920;-83
2023/06/06 00:04:33;;;;;;;;;;;;;;;22.59;nan;102035.16;5039370;28;19931;-82
2023/06/06 00:06:58;;;;;;;;;;;;;;;22.53;nan;102028.19;5037225;28;19924;-82
2023/06/06 00:09:23;;;;;;;;;;;;;;;22.43;nan;102031.06;5034563;28;21607;-82
2023/06/06 00:11:49;;;;;;;;;;;;;;;22.33;nan;102026.56;5042276;28;19964;-82
2023/06/06 00:14:18;;;;;;;;;;;;;;;22.28;nan;102029.38;5035082;28;20530;-82
2023/06/06 00:16:46;;;;;;;;;;;;;;;22.23;nan;102026.72;5041147;28;19920;-82
2023/06/06 00:19:13;;;;;;;;;;;;;;;22.18;nan;102021.34;5043401;28;19931;-82
2023/06/06 00:21:38;;;;;;;;;;;;;;;22.12;nan;102026.06;5041445;28;19936;-82
2023/06/06 00:24:03;;;;;;;;;;;;;;;22.03;nan;102022.34;5042791;28;19924;-83
2023/06/06 00:26:29;;;;;;;;;;;;;;;21.94;nan;102021.38;5043205;28;19928;-82
2023/06/06 00:28:54;;;;;;;;;;;;;;;21.90;nan;102021.16;5041852;28;19929;-83
2023/06/06 00:31:20;;;;;;;;;;;;;;;21.87;nan;102013.53;5043304;28;19938;-83
2023/06/06 00:33:45;;;;;;;;;;;;;;;21.86;nan;102017.38;5045996;28;19942;-82
2023/06/06 00:36:11;;;;;;;;;;;;;;;21.83;nan;102017.16;5046070;28;19931;-82
2023/06/06 00:38:36;;;;;;;;;;;;;;;21.80;nan;102018.56;5043558;28;19928;-82
2023/06/06 00:41:01;;;;;;;;;;;;;;;21.77;nan;102016.41;5045595;28;20023;-82
2023/06/06 00:43:27;;;;;;;;;;;;;;;21.75;nan;102010.44;5047256;28;20507;-83
2023/06/06 00:45:52;;;;;;;;;;;;;;;21.75;nan;102010.44;5059035;28;19921;-82
2023/06/06 00:48:18;;;;;;;;;;;;;;;21.70;nan;102014.03;5042945;28;19927;-82
2023/06/06 00:50:44;;;;;;;;;;;;;;;21.69;nan;102017.06;5044939;28;19966;-82
2023/06/06 00:53:10;;;;;;;;;;;;;;;21.61;nan;102013.06;5042897;28;20495;-83
2023/06/06 00:55:36;;;;;;;;;;;;;;;21.51;nan;102004.19;5043869;28;19970;-82
2023/06/06 00:58:03;;;;;;;;;;;;;;;21.39;nan;102018.25;5044205;28;19935;-82
2023/06/06 01:00:32;;;;;;;;;;;;;;;21.31;nan;102013.41;5041286;28;19923;-82
2023/06/06 01:02:59;;;;;;;;;;;;;;;21.24;nan;102015.66;5043114;28;20584;-82
2023/06/06 01:05:25;;;;;;;;;;;;;;;21.20;nan;102012.69;5041953;28;19928;-82
2023/06/06 01:07:53;;;;;;;;;;;;;;;21.16;nan;102008.09;5045627;28;19927;-82
2023/06/06 01:10:19;;;;;;;;;;;;;;;21.12;nan;102013.31;5044551;28;19920;-82
2023/06/06 01:12:50;;;;;;;;;;;;;;;21.05;nan;102008.22;5047569;28;20439;-82
2023/06/06 01:15:17;;;;;;;;;;;;;;;21.02;nan;102007.97;5045049;28;19921;-82
2023/06/06 01:17:46;;;;;;;;;;;;;;;21.03;nan;102004.97;5047714;28;19924;-82
2023/06/06 01:20:12;;;;;;;;;;;;;;;21.05;nan;102004.69;5046106;28;20373;-82
2023/06/06 01:22:37;;;;;;;;;;;;;;;20.97;nan;102006.09;5043177;28;19923;-81
2023/06/06 01:25:03;;;;;;;;;;;;;;;20.94;nan;102011.31;5044263;28;20402;-82
2023/06/06 01:27:33;;;;;;;;;;;;;;;20.87;nan;102014.38;5041092;28;20503;-82
2023/06/06 01:29:59;;;;;;;;;;;;;;;20.78;nan;102019.63;5044737;28;19923;-82
2023/06/06 01:32:24;;;;;;;;;;;;;;;20.68;nan;102017.00;5044328;28;19917;-82
2023/06/06 01:35:06;;;;;;;;;;;;;;;20.59;nan;102017.88;5045391;28;19979;-82
2023/06/06 01:40:09;;;;;;;;;;;;;;;20.55;nan;102011.38;5048396;23;20470;-82
2023/06/06 01:42:37;;;;;;;;;;;;;;;20.56;nan;102011.09;4980665;28;19922;-82
2023/06/06 01:45:03;;;;;;;;;;;;;;;20.57;nan;102022.81;4982988;28;19922;-82
2023/06/06 01:47:30;;;;;;;;;;;;;;;20.54;nan;102016.03;4982137;28;20383;-82
2023/06/06 01:49:56;;;;;;;;;;;;;;;20.51;nan;102019.31;4981185;28;19921;-82
2023/06/06 01:52:27;;;;;;;;;;;;;;;20.48;nan;102015.25;4985352;28;19929;-82
2023/06/06 01:54:53;;;;;;;;;;;;;;;20.42;nan;102012.84;4986767;28;19957;-82
2023/06/06 01:57:18;;;;;;;;;;;;;;;20.34;nan;102016.13;4984938;28;20285;-83
2023/06/06 01:59:43;;;;;;;;;;;;;;;20.23;nan;102016.19;4986689;28;19957;-82
2023/06/06 02:02:09;;;;;;;;;;;;;;;20.14;nan;102020.63;4983212;28;19936;-82
2023/06/06 02:04:34;;;;;;;;;;;;;;;20.05;nan;102013.31;4981265;28;19925;-82
2023/06/06 02:07:00;;;;;;;;;;;;;;;20.02;nan;102017.41;4981764;28;20040;-82
2023/06/06 02:09:26;;;;;;;;;;;;;;;20.03;nan;102015.50;4982451;28;19922;-82
2023/06/06 02:11:52;;;;;;;;;;;;;;;20.01;nan;102012.25;4981834;28;19922;-82
2023/06/06 02:14:18;;;;;;;;;;;;;;;19.94;nan;102009.03;4982062;28;19918;-82
2023/06/06 02:16:48;;;;;;;;;;;;;;;19.88;nan;102017.22;4982175;28;19918;-82
2023/06/06 02:19:13;;;;;;;;;;;;;;;19.82;nan;102012.09;4982801;28;19929;-82
2023/06/06 02:21:39;;;;;;;;;;;;;;;19.79;nan;102007.22;4986514;28;19921;-82
2023/06/06 02:24:04;;;;;;;;;;;;;;;19.80;nan;101997.97;4984571;28;19925;-82
2023/06/06 02:26:31;;;;;;;;;;;;;;;19.81;nan;102003.13;4984978;28;21497;-81
2023/06/06 02:28:57;;;;;;;;;;;;;;;19.84;nan;102002.56;4984926;28;20500;-82
2023/06/06 02:31:23;;;;;;;;;;;;;;;19.84;nan;102001.75;4987786;28;19964;-82
2023/06/06 02:33:48;;;;;;;;;;;;;;;19.80;nan;102000.69;4986433;28;20374;-83
2023/06/06 02:36:14;;;;;;;;;;;;;;;19.73;nan;101997.44;4992010;28;19932;-82
2023/06/06 02:38:40;;;;;;;;;;;;;;;19.69;nan;101996.38;4980022;28;19929;-82
2023/06/06 02:41:05;;;;;;;;;;;;;;;19.68;nan;101992.84;4985786;28;20482;-82
2023/06/06 02:43:30;;;;;;;;;;;;;;;19.68;nan;101994.75;4988865;28;19918;-82
2023/06/06 02:45:56;;;;;;;;;;;;;;;19.66;nan;101995.03;4987214;28;19920;-82
2023/06/06 02:48:23;;;;;;;;;;;;;;;19.63;nan;102001.03;4986448;28;19985;-82
2023/06/06 02:50:48;;;;;;;;;;;;;;;19.61;nan;101998.59;4985451;28;19992;-82
2023/06/06 02:53:15;;;;;;;;;;;;;;;19.59;nan;101998.06;4986158;28;20388;-82
2023/06/06 02:55:40;;;;;;;;;;;;;;;19.52;nan;102008.38;4987280;28;20357;-83
2023/06/06 02:58:23;;;;;;;;;;;;;;;19.48;nan;102001.03;4987021;28;19965;-82
2023/06/06 03:00:48;;;;;;;;;;;;;;;19.47;nan;102000.22;4986482;28;19921;-81
2023/06/06 03:03:14;;;;;;;;;;;;;;;19.49;nan;102000.75;4986176;28;19917;-83
2023/06/06 03:05:39;;;;;;;;;;;;;;;19.44;nan;102000.78;4987661;28;19988;-82
2023/06/06 03:08:05;;;;;;;;;;;;;;;19.38;nan;101993.72;4985860;28;19926;-82
2023/06/06 03:10:30;;;;;;;;;;;;;;;19.33;nan;101989.13;4979806;28;19925;-82
2023/06/06 03:12:55;;;;;;;;;;;;;;;19.32;nan;101994.84;4987980;28;19956;-82
2023/06/06 03:15:20;;;;;;;;;;;;;;;19.31;nan;101999.47;4986406;28;19998;-82
2023/06/06 03:17:48;;;;;;;;;;;;;;;19.29;nan;101992.69;4987323;28;19921;-82
2023/06/06 03:20:13;;;;;;;;;;;;;;;19.28;nan;101996.50;4985882;28;19918;-81
2023/06/06 03:22:39;;;;;;;;;;;;;;;19.28;nan;102002.75;4985292;28;19944;-82
2023/06/06 03:25:04;;;;;;;;;;;;;;;19.27;nan;101994.88;4986317;28;19921;-82
2023/06/06 03:27:30;;;;;;;;;;;;;;;19.26;nan;101998.69;4987650;28;19918;-82
2023/06/06 03:29:55;;;;;;;;;;;;;;;19.30;nan;101986.97;4986484;28;19926;-82
2023/06/06 03:32:21;;;;;;;;;;;;;;;19.37;nan;101994.81;4989037;28;19922;-82
2023/06/06 03:34:48;;;;;;;;;;;;;;;19.44;nan;101997.25;4985578;28;19963;-81
2023/06/06 03:37:13;;;;;;;;;;;;;;;19.46;nan;101998.59;4984289;28;19921;-82
2023/06/06 03:39:39;;;;;;;;;;;;;;;19.50;nan;101996.97;4982911;28;19952;-82
2023/06/06 03:42:05;;;;;;;;;;;;;;;19.55;nan;101991.53;4984176;28;19925;-82
2023/06/06 03:44:30;;;;;;;;;;;;;;;19.59;nan;101989.91;4981744;28;19918;-82
2023/06/06 03:46:55;;;;;;;;;;;;;;;19.67;nan;101999.38;4988618;28;20301;-82
2023/06/06 03:49:21;;;;;;;;;;;;;;;19.74;nan;101996.34;4983068;28;19926;-82
2023/06/06 03:51:46;;;;;;;;;;;;;;;19.79;nan;101999.88;4985386;28;19961;-82
2023/06/06 03:54:12;;;;;;;;;;;;;;;19.84;nan;101999.00;4986557;28;19933;-82
2023/06/06 03:56:40;;;;;;;;;;;;;;;19.91;nan;101996.78;4983601;28;20399;-82
2023/06/06 03:59:11;;;;;;;;;;;;;;;19.98;nan;101996.50;4983806;28;19934;-82
2023/06/06 04:01:36;;;;;;;;;;;;;;;20.04;nan;101993.47;4983705;28;19954;-82
2023/06/06 04:04:01;;;;;;;;;;;;;;;20.14;nan;101992.59;4982832;28;20025;-82
2023/06/06 04:06:27;;;;;;;;;;;;;;;20.21;nan;101993.09;4980609;28;19922;-83
2023/06/06 04:08:52;;;;;;;;;;;;;;;20.28;nan;101998.19;4983065;28;19932;-82
2023/06/06 04:11:18;;;;;;;;;;;;;;;20.32;nan;101993.84;4979922;28;19964;-83
2023/06/06 04:13:43;;;;;;;;;;;;;;;20.38;nan;101993.50;4984703;28;19932;-82
2023/06/06 04:16:08;;;;;;;;;;;;;;;20.45;nan;101993.19;4984600;28;19922;-83
2023/06/06 04:18:34;;;;;;;;;;;;;;;20.54;nan;101991.50;4983874;28;19930;-82
2023/06/06 04:20:59;;;;;;;;;;;;;;;20.62;nan;101993.59;4980640;28;19954;-83
2023/06/06 04:23:25;;;;;;;;;;;;;;;20.72;nan;101982.63;4982878;28;20001;-83
2023/06/06 04:25:50;;;;;;;;;;;;;;;20.83;nan;101986.09;4982444;28;19924;-82
2023/06/06 04:28:18;;;;;;;;;;;;;;;20.93;nan;101987.91;4981456;28;19926;-84
2023/06/06 04:30:45;;;;;;;;;;;;;;;21.01;nan;101990.81;4982749;28;20304;-83
2023/06/06 04:33:10;;;;;;;;;;;;;;;21.10;nan;101988.25;4981887;28;19924;-82
2023/06/06 04:35:36;;;;;;;;;;;;;;;21.23;nan;101995.75;4980912;28;19922;-83
2023/06/06 04:38:01;;;;;;;;;;;;;;;21.35;nan;101989.91;4984024;28;20330;-82
2023/06/06 04:40:32;;;;;;;;;;;;;;;21.44;nan;101980.00;4980594;28;19922;-82
2023/06/06 04:42:58;;;;;;;;;;;;;;;21.57;nan;101989.41;4983757;28;19972;-83
2023/06/06 04:45:23;;;;;;;;;;;;;;;21.66;nan;101980.25;4987539;28;20364;-82
2023/06/06 04:47:49;;;;;;;;;;;;;;;21.79;nan;101984.19;4983910;28;19919;-84
2023/06/06 04:50:14;;;;;;;;;;;;;;;21.90;nan;101991.16;4983796;28;19973;-83
2023/06/06 04:52:39;;;;;;;;;;;;;;;21.99;nan;101981.19;4984953;28;20413;-84
2023/06/06 04:55:07;;;;;;;;;;;;;;;22.10;nan;101981.06;4985386;28;19925;-84
2023/06/06 04:57:33;;;;;;;;;;;;;;;22.20;nan;101983.63;4984057;28;19925;-85
2023/06/06 04:59:58;;;;;;;;;;;;;;;22.29;nan;101988.13;5001138;28;19932;-84
2023/06/06 05:02:28;;;;;;;;;;;;;;;22.42;nan;101980.28;4985646;28;19953;-84
2023/06/06 05:04:56;;;;;;;;;;;;;;;22.54;nan;101989.63;4983708;28;20012;-83
2023/06/06 05:07:25;;;;;;;;;;;;;;;22.66;nan;101991.09;4983461;28;19976;-83
2023/06/06 05:09:50;;;;;;;;;;;;;;;22.77;nan;101990.59;4982090;28;19926;-83
2023/06/06 05:12:16;;;;;;;;;;;;;;;22.86;nan;101986.13;4980555;28;19925;-83
2023/06/06 05:14:41;;;;;;;;;;;;;;;22.97;nan;101981.25;4983092;28;20369;-85
2023/06/06 05:17:06;;;;;;;;;;;;;;;23.07;nan;101986.53;4980695;28;19930;-83
2023/06/06 05:19:32;;;;;;;;;;;;;;;23.19;nan;101986.88;4981072;28;19933;-83
2023/06/06 05:21:57;;;;;;;;;;;;;;;23.31;nan;101985.53;4983520;28;20328;-84
2023/06/06 05:24:22;;;;;;;;;;;;;;;23.44;nan;101985.53;4997469;28;19918;-83
2023/06/06 05:26:48;;;;;;;;;;;;;;;23.58;nan;101971.88;4981176;28;19924;-84
2023/06/06 05:29:13;;;;;;;;;;;;;;;23.69;nan;101976.00;4985811;28;19918;-84
2023/06/06 05:31:39;;;;;;;;;;;;;;;23.82;nan;101985.31;4981665;28;20269;-84
2023/06/06 05:34:04;;;;;;;;;;;;;;;23.94;nan;101991.06;4981251;28;19968;-83
2023/06/06 05:36:29;;;;;;;;;;;;;;;24.08;nan;101985.56;4982416;28;19924;-83
2023/06/06 05:38:55;;;;;;;;;;;;;;;24.21;nan;101995.63;4981257;28;19926;-83
2023/06/06 05:41:20;;;;;;;;;;;;;;;24.34;nan;102000.28;4981500;28;20419;-84
2023/06/06 05:43:50;;;;;;;;;;;;;;;24.48;nan;101989.28;4982032;28;19953;-85
2023/06/06 05:46:15;;;;;;;;;;;;;;;24.62;nan;101991.94;4983777;28;20064;-84
2023/06/06 05:48:41;;;;;;;;;;;;;;;24.76;nan;101987.19;4985751;28;20008;-83
2023/06/06 05:51:07;;;;;;;;;;;;;;;24.89;nan;101986.28;4981189;28;19922;-83
2023/06/06 05:53:32;;;;;;;;;;;;;;;25.05;nan;101991.41;4984377;28;20408;-84
2023/06/06 05:55:58;;;;;;;;;;;;;;;25.20;nan;101988.25;4984846;28;19925;-84
2023/06/06 05:58:23;;;;;;;;;;;;;;;25.35;nan;101992.50;4987895;28;19918;-83
2023/06/06 06:00:48;;;;;;;;;;;;;;;25.49;nan;101990.41;4984717;28;20020;-83
2023/06/06 06:03:15;;;;;;;;;;;;;;;25.66;nan;101992.38;4989497;28;19926;-83
2023/06/06 06:05:40;;;;;;;;;;;;;;;25.80;nan;101982.09;4987061;28;19922;-83
2023/06/06 06:08:06;;;;;;;;;;;;;;;25.96;nan;101980.50;4982922;28;20337;-83
2023/06/06 06:10:32;;;;;;;;;;;;;;;26.14;nan;101989.56;4978607;28;19925;-84
2023/06/06 06:12:58;;;;;;;;;;;;;;;26.29;nan;101983.59;4987259;28;19922;-84
2023/06/06 06:15:24;;;;;;;;;;;;;;;26.44;nan;101987.81;4982634;28;19976;-84
2023/06/06 06:17:49;;;;;;;;;;;;;;;26.57;nan;101985.97;4983883;28;20017;-84
2023/06/06 06:20:15;;;;;;;;;;;;;;;26.68;nan;101993.56;4982449;28;20608;-84
2023/06/06 06:22:41;;;;;;;;;;;;;;;26.81;nan;102005.50;4983358;28;19941;-84
2023/06/06 06:25:12;;;;;;;;;;;;;;;26.94;nan;102000.94;4983586;28;20386;-84
2023/06/06 06:27:41;;;;;;;;;;;;;;;27.08;nan;101987.78;4984335;28;19922;-84
2023/06/06 06:30:07;;;;;;;;;;;;;;;27.22;nan;101993.88;4981318;28;19925;-84
2023/06/06 06:32:36;;;;;;;;;;;;;;;27.38;nan;102000.44;4987430;28;20538;-84
2023/06/06 06:35:02;;;;;;;;;;;;;;;27.49;nan;102002.84;4985050;28;19922;-84
2023/06/06 06:37:29;;;;;;;;;;;;;;;27.60;nan;101999.34;4984186;28;19929;-84
2023/06/06 06:39:55;;;;;;;;;;;;;;;27.77;nan;101997.66;4984373;28;19961;-84
2023/06/06 06:42:21;;;;;;;;;;;;;;;27.92;nan;102011.63;4983254;28;20008;-84
2023/06/06 06:44:46;;;;;;;;;;;;;;;28.03;nan;102005.75;4981840;28;19921;-84
2023/06/06 06:47:11;;;;;;;;;;;;;;;28.15;nan;102008.53;4985135;28;19925;-84
2023/06/06 06:49:38;;;;;;;;;;;;;;;28.31;nan;102006.81;4981977;28;19956;-84
2023/06/06 06:52:04;;;;;;;;;;;;;;;28.44;nan;102008.47;4986346;28;19928;-83
2023/06/06 06:54:29;;;;;;;;;;;;;;;28.53;nan;102009.19;4986689;28;19939;-83
2023/06/06 06:56:54;;;;;;;;;;;;;;;28.65;nan;102013.94;4986836;28;20524;-84
2023/06/06 06:59:20;;;;;;;;;;;;;;;28.76;nan;102019.84;4980275;28;20009;-83
2023/06/06 07:01:49;;;;;;;;;;;;;;;28.88;nan;102014.34;4984972;28;19928;-83
2023/06/06 07:04:17;;;;;;;;;;;;;;;29.00;nan;102019.91;4983008;28;20401;-84
2023/06/06 07:06:46;;;;;;;;;;;;;;;29.14;nan;102014.88;4999483;28;19925;-83
2023/06/06 07:09:12;;;;;;;;;;;;;;;29.28;nan;102019.25;4984370;28;19922;-83
2023/06/06 07:11:38;;;;;;;;;;;;;;;29.40;nan;102016.47;4982293;28;20009;-84
2023/06/06 07:14:03;;;;;;;;;;;;;;;29.49;nan;102019.97;4987302;28;20393;-84
2023/06/06 07:16:30;;;;;;;;;;;;;;;29.64;nan;102021.22;4983892;28;20559;-84
2023/06/06 07:18:56;;;;;;;;;;;;;;;29.78;nan;102011.38;4982030;28;19980;-84
2023/06/06 07:21:21;;;;;;;;;;;;;;;29.93;nan;102014.59;4981785;28;20397;-84
2023/06/06 07:23:50;;;;;;;;;;;;;;;30.06;nan;102007.91;4981402;28;20572;-83
2023/06/06 07:26:21;;;;;;;;;;;;;;;30.16;nan;102010.16;4986212;28;19924;-83
2023/06/06 07:28:47;;;;;;;;;;;;;;;30.28;nan;102012.09;4986399;28;20589;-84
2023/06/06 07:31:13;;;;;;;;;;;;;;;30.42;nan;102006.97;4985216;28;19976;-85
2023/06/06 07:33:38;;;;;;;;;;;;;;;30.58;nan;101996.72;4984044;28;19961;-84
2023/06/06 07:36:04;;;;;;;;;;;;;;;30.71;nan;102005.00;4982361;28;20425;-84
2023/06/06 07:38:30;;;;;;;;;;;;;;;30.83;nan;102004.91;4982444;28;20377;-84
2023/06/06 07:40:56;;;;;;;;;;;;;;;30.90;nan;102011.44;4984998;28;19972;-84
2023/06/06 07:43:21;;;;;;;;;;;;;;;31.03;nan;102006.59;4982208;28;19922;-84
2023/06/06 07:45:47;;;;;;;;;;;;;;;31.16;nan;102010.88;4984693;28;20374;-84
2023/06/06 07:48:12;;;;;;;;;;;;;;;31.29;nan;102003.31;4980741;28;20051;-84
2023/06/06 07:50:37;;;;;;;;;;;;;;;31.43;nan;102003.66;4983736;28;20617;-84
2023/06/06 07:53:03;;;;;;;;;;;;;;;31.53;nan;101993.97;4983919;28;19918;-85
2023/06/06 07:55:30;;;;;;;;;;;;;;;31.64;nan;101995.03;4987264;28;21642;-85
2023/06/06 07:57:57;;;;;;;;;;;;;;;31.75;nan;101998.84;4980994;28;20753;-85
2023/06/06 08:00:23;;;;;;;;;;;;;;;31.87;nan;101997.94;4985529;28;19925;-84
2023/06/06 08:02:48;;;;;;;;;;;;;;;32.03;nan;101997.88;4981552;28;19918;-85
2023/06/06 08:05:14;;;;;;;;;;;;;;;32.17;nan;102003.72;4983460;28;19953;-84
2023/06/06 08:07:39;;;;;;;;;;;;;;;32.21;nan;101998.22;4987041;28;20539;-84
2023/06/06 08:10:06;;;;;;;;;;;;;;;32.19;nan;101998.59;4997984;28;20278;-84
2023/06/06 08:12:31;;;;;;;;;;;;;;;32.25;nan;101994.34;4997542;28;19921;-84
2023/06/06 08:14:57;;;;;;;;;;;;;;;32.36;nan;102000.16;4985400;28;19925;-85
2023/06/06 08:17:22;;;;;;;;;;;;;;;32.47;nan;101999.16;4983643;28;20008;-84
2023/06/06 08:19:47;;;;;;;;;;;;;;;32.54;nan;101987.41;4982255;28;19918;-84
2023/06/06 08:22:13;;;;;;;;;;;;;;;32.64;nan;101991.53;4985195;28;20518;-85
2023/06/06 08:24:39;;;;;;;;;;;;;;;32.72;nan;101994.09;4985949;28;20286;-84
2023/06/06 08:27:05;;;;;;;;;;;;;;;32.78;nan;101991.78;4981667;28;19918;-84
2023/06/06 08:29:30;;;;;;;;;;;;;;;32.84;nan;101995.09;4982630;28;19928;-84
2023/06/06 08:31:56;;;;;;;;;;;;;;;32.98;nan;101992.56;4984435;28;20363;-84
2023/06/06 08:34:24;;;;;;;;;;;;;;;33.19;nan;101981.78;4981407;28;19921;-84
2023/06/06 08:36:50;;;;;;;;;;;;;;;33.38;nan;101994.00;4984384;28;19940;-84
2023/06/06 08:39:18;;;;;;;;;;;;;;;33.52;nan;101991.44;4980744;28;20448;-84
2023/06/06 08:41:48;;;;;;;;;;;;;;;33.57;nan;101991.09;4981612;28;19959;-84
2023/06/06 08:44:13;;;;;;;;;;;;;;;33.64;nan;101994.00;4979777;28;19953;-85
2023/06/06 08:46:40;;;;;;;;;;;;;;;33.71;nan;101984.94;4981994;28;20005;-85
2023/06/06 08:49:06;;;;;;;;;;;;;;;33.83;nan;101987.50;4981127;28;19922;-84
2023/06/06 08:51:32;;;;;;;;;;;;;;;33.88;nan;101989.97;4979257;28;19977;-85
2023/06/06 08:53:58;;;;;;;;;;;;;;;33.97;nan;101989.69;4985806;28;19926;-84
2023/06/06 08:56:25;;;;;;;;;;;;;;;34.12;nan;101983.13;4980531;28;19929;-84
2023/06/06 08:58:51;;;;;;;;;;;;;;;34.28;nan;101980.88;4983445;28;20012;-85
2023/06/06 09:01:22;;;;;;;;;;;;;;;34.42;nan;101972.72;4981787;28;19918;-85
2023/06/06 09:03:48;;;;;;;;;;;;;;;34.59;nan;101978.84;4983578;28;19928;-85
2023/06/06 09:06:16;;;;;;;;;;;;;;;34.75;nan;101974.63;4979693;28;19922;-85
2023/06/06 09:08:42;;;;;;;;;;;;;;;34.89;nan;101971.19;4980936;28;19926;-84
2023/06/06 09:11:07;;;;;;;;;;;;;;;35.02;nan;101966.94;4982482;28;19968;-84
2023/06/06 09:13:32;;;;;;;;;;;;;;;35.14;nan;101965.81;4980262;28;19925;-84
2023/06/06 09:15:59;;;;;;;;;;;;;;;35.24;nan;101976.22;4980936;28;19969;-84
2023/06/06 09:18:28;;;;;;;;;;;;;;;35.39;nan;101966.81;4995481;28;20087;-84
2023/06/06 09:20:54;;;;;;;;;;;;;;;35.56;nan;101968.09;4977550;28;20019;-84
2023/06/06 09:23:19;;;;;;;;;;;;;;;35.65;nan;101962.16;4977187;28;20016;-84
2023/06/06 09:25:45;;;;;;;;;;;;;;;35.67;nan;101963.34;4977693;28;19944;-84
2023/06/06 09:28:10;;;;;;;;;;;;;;;35.73;nan;101969.38;4978804;28;19941;-84
2023/06/06 09:30:36;;;;;;;;;;;;;;;35.89;nan;101960.69;4981608;28;19933;-83
2023/06/06 09:33:02;;;;;;;;;;;;;;;35.97;nan;101960.31;4982538;28;19926;-85
2023/06/06 09:35:42;;;;;;;;;;;;;;;36.09;nan;101975.91;4982424;28;19918;-84
2023/06/06 09:38:14;;;;;;;;;;;;;;;36.25;nan;101958.78;4985317;28;19921;-84
2023/06/06 09:40:47;;;;;;;;;;;;;;;36.30;nan;101959.22;4976234;28;19926;-85
2023/06/06 09:43:12;;;;;;;;;;;;;;;36.40;nan;101956.84;4979206;28;20460;-85
2023/06/06 09:45:51;;;;;;;;;;;;;;;36.52;nan;101953.69;4982025;28;19933;-85
2023/06/06 09:48:23;;;;;;;;;;;;;;;36.64;nan;101958.88;4975249;28;19928;-85
2023/06/06 09:50:49;;;;;;;;;;;;;;;36.79;nan;101952.13;4977545;28;19922;-85
2023/06/06 09:53:15;;;;;;;;;;;;;;;36.85;nan;101953.31;4980222;28;20645;-84
2023/06/06 09:55:41;;;;;;;;;;;;;;;36.91;nan;101954.50;4977204;28;19926;-86
2023/06/06 09:58:08;;;;;;;;;;;;;;;37.00;nan;101945.75;4979527;28;19926;-86
2023/06/06 10:00:37;;;;;;;;;;;;;;;37.15;nan;101949.28;4978211;28;20584;-85
2023/06/06 10:03:04;;;;;;;;;;;;;;;37.27;nan;101940.50;4979291;28;20384;-84
2023/06/06 10:05:29;;;;;;;;;;;;;;;37.34;nan;101934.09;4980574;28;19922;-84
2023/06/06 10:07:55;;;;;;;;;;;;;;;37.36;nan;101946.50;4981957;28;19957;-85
2023/06/06 10:10:21;;;;;;;;;;;;;;;37.41;nan;101946.06;4980340;28;19922;-85
2023/06/06 10:12:47;;;;;;;;;;;;;;;37.50;nan;101938.03;4979923;28;20392;-85
2023/06/06 10:15:12;;;;;;;;;;;;;;;37.63;nan;101938.38;4979331;28;20476;-84
2023/06/06 10:17:42;;;;;;;;;;;;;;;37.77;nan;101938.34;4978829;28;19928;-86
2023/06/06 10:20:12;;;;;;;;;;;;;;;37.89;nan;101934.31;4979692;28;19938;-86
2023/06/06 10:22:38;;;;;;;;;;;;;;;37.95;nan;101929.06;4980845;28;20378;-85
2023/06/06 10:25:03;;;;;;;;;;;;;;;37.98;nan;101934.66;4978768;28;20069;-85
2023/06/06 10:27:37;;;;;;;;;;;;;;;37.94;nan;101939.47;4981182;28;19921;-84
2023/06/06 10:30:07;;;;;;;;;;;;;;;37.92;nan;101936.28;4978728;28;19926;-85
2023/06/06 10:32:50;;;;;;;;;;;;;;;37.97;nan;101935.84;4979360;28;19929;-85
2023/06/06 10:35:16;;;;;;;;;;;;;;;38.05;nan;101928.19;4980545;28;19925;-84
2023/06/06 10:37:42;;;;;;;;;;;;;;;38.04;nan;101927.41;4979261;28;19925;-85
2023/06/06 10:40:09;;;;;;;;;;;;;;;38.07;nan;101932.22;4979488;28;20432;-85
2023/06/06 10:42:36;;;;;;;;;;;;;;;38.09;nan;101938.19;4975428;28;19945;-84
2023/06/06 10:45:01;;;;;;;;;;;;;;;38.15;nan;101929.34;4983271;28;19933;-83
2023/06/06 10:47:32;;;;;;;;;;;;;;;38.13;nan;101926.16;4978277;28;20310;-83
2023/06/06 10:50:13;;;;;;;;;;;;;;;38.17;nan;101938.13;4996807;28;19922;-82
2023/06/06 10:52:59;;;;;;;;;;;;;;;38.09;nan;101924.19;4983520;28;20536;-82
2023/06/06 10:55:24;;;;;;;;;;;;;;;38.25;nan;101923.72;4988761;28;19928;-82
2023/06/06 10:58:10;;;;;;;;;;;;;;;38.45;nan;101920.38;4983757;28;19925;-82
2023/06/06 11:00:36;;;;;;;;;;;;;;;38.54;nan;101926.28;4985809;28;20339;-82
2023/06/06 11:03:05;;;;;;;;;;;;;;;38.60;nan;101921.81;4986081;28;19926;-82
2023/06/06 11:05:31;;;;;;;;;;;;;;;38.69;nan;101914.56;4986104;28;19980;-82
2023/06/06 11:08:02;;;;;;;;;;;;;;;38.82;nan;101922.47;4986456;28;20500;-82
2023/06/06 11:10:28;;;;;;;;;;;;;;;38.79;nan;101917.72;4983308;28;19925;-82
2023/06/06 11:12:53;;;;;;;;;;;;;;;38.76;nan;101907.31;4981941;28;19925;-82
2023/06/06 11:15:32;;;;;;;;;;;;;;;38.80;nan;101908.09;4988320;28;20456;-82
2023/06/06 11:18:04;;;;;;;;;;;;;;;38.74;nan;101910.53;4984603;28;19941;-82
2023/06/06 11:20:38;;;;;;;;;;;;;;;38.86;nan;101901.63;4986776;28;20383;-82
2023/06/06 11:23:04;;;;;;;;;;;;;;;39.07;nan;101903.38;4987250;28;19934;-82
2023/06/06 11:25:30;;;;;;;;;;;;;;;39.24;nan;101899.63;4986957;28;19972;-82
2023/06/06 11:27:56;;;;;;;;;;;;;;;39.28;nan;101905.97;4981304;28;19948;-83
2023/06/06 11:30:23;;;;;;;;;;;;;;;39.19;nan;101908.50;4984732;28;20449;-82
2023/06/06 11:32:48;;;;;;;;;;;;;;;39.07;nan;101911.00;4986335;28;19925;-82
2023/06/06 11:35:14;;;;;;;;;;;;;;;38.91;nan;101898.34;4983789;28;19922;-82
2023/06/06 11:37:40;;;;;;;;;;;;;;;38.73;nan;101902.53;4983909;28;19945;-82
2023/06/06 11:40:08;;;;;;;;;;;;;;;38.51;nan;101899.13;4999822;28;19918;-83
2023/06/06 11:42:33;;;;;;;;;;;;;;;38.34;nan;101890.44;4995619;28;19922;-83
2023/06/06 11:45:00;;;;;;;;;;;;;;;38.21;nan;101882.94;4986165;28;20304;-83
2023/06/06 11:47:32;;;;;;;;;;;;;;;38.20;nan;101875.75;4987287;28;19961;-84
2023/06/06 11:49:57;;;;;;;;;;;;;;;38.31;nan;101888.47;4982956;28;19922;-82
2023/06/06 11:52:22;;;;;;;;;;;;;;;38.53;nan;101883.50;4982833;28;20317;-82
2023/06/06 11:54:52;;;;;;;;;;;;;;;38.69;nan;101880.97;4982001;28;20512;-82
2023/06/06 11:57:18;;;;;;;;;;;;;;;38.65;nan;101879.41;4980839;28;19932;-82
2023/06/06 11:59:52;;;;;;;;;;;;;;;38.70;nan;101878.97;4984290;28;19929;-82
2023/06/06 12:02:18;;;;;;;;;;;;;;;38.79;nan;101875.69;4985824;28;19968;-81
2023/06/06 12:04:46;;;;;;;;;;;;;;;38.84;nan;101875.22;4986345;28;19926;-83
2023/06/06 12:07:12;;;;;;;;;;;;;;;38.90;nan;101873.56;4984426;28;20389;-83
2023/06/06 12:09:37;;;;;;;;;;;;;;;38.81;nan;101871.25;4986541;28;19932;-82
2023/06/06 12:12:04;;;;;;;;;;;;;;;38.87;nan;101875.19;4985998;28;19918;-83
2023/06/06 12:14:30;;;;;;;;;;;;;;;39.05;nan;101874.19;4983430;28;20365;-84
2023/06/06 12:17:03;;;;;;;;;;;;;;;39.11;nan;101866.94;4985794;28;19925;-84
2023/06/06 12:19:28;;;;;;;;;;;;;;;38.93;nan;101861.50;4983117;28;20456;-85
2023/06/06 12:21:53;;;;;;;;;;;;;;;38.75;nan;101866.50;4981895;28;19937;-84
2023/06/06 12:24:20;;;;;;;;;;;;;;;38.79;nan;101861.69;4985552;28;21023;-83
2023/06/06 12:27:02;;;;;;;;;;;;;;;38.87;nan;101866.78;4983181;28;19980;-83
2023/06/06 12:29:35;;;;;;;;;;;;;;;39.12;nan;101855.31;4984587;28;19917;-82
2023/06/06 12:32:25;;;;;;;;;;;;;;;39.42;nan;101862.16;4983979;28;19924;-81
2023/06/06 12:34:59;;;;;;;;;;;;;;;39.70;nan;101864.63;4984035;28;19976;-82
2023/06/06 12:37:25;;;;;;;;;;;;;;;39.93;nan;101854.66;4985100;28;20443;-84
2023/06/06 12:39:51;;;;;;;;;;;;;;;40.09;nan;101849.22;4980356;28;19933;-81
2023/06/06 12:42:19;;;;;;;;;;;;;;;40.12;nan;101851.97;4981825;28;20369;-82
2023/06/06 12:44:46;;;;;;;;;;;;;;;40.00;nan;101846.94;4979897;28;19922;-82
2023/06/06 12:47:12;;;;;;;;;;;;;;;39.84;nan;101853.16;4976661;28;19926;-82
2023/06/06 12:49:39;;;;;;;;;;;;;;;39.77;nan;101864.50;4980475;28;19969;-82
2023/06/06 12:52:05;;;;;;;;;;;;;;;39.77;nan;101855.28;4983645;28;20372;-82
2023/06/06 12:54:30;;;;;;;;;;;;;;;39.75;nan;101854.91;4983959;28;19954;-82
2023/06/06 12:56:56;;;;;;;;;;;;;;;39.78;nan;101854.88;4978145;28;19929;-81
2023/06/06 12:59:23;;;;;;;;;;;;;;;39.78;nan;101849.25;4977535;28;19952;-83